createdAt,value
2023-02-06T00:01:45.636Z,0.05
2023-02-06T00:04:14.629Z,0.12
2023-02-06T00:06:46.608Z,0.15
2023-02-06T00:09:15.996Z,0.17
2023-02-06T00:11:47.956Z,0.17
2023-02-06T00:14:16.645Z,0.18
2023-02-06T00:17:05.500Z,0.19
2023-02-06T00:19:36.042Z,0.14
2023-02-06T00:22:04.688Z,0.11
2023-02-06T00:24:33.605Z,0.11
2023-02-06T00:27:03.266Z,0.15
2023-02-06T00:29:32.409Z,0.20
2023-02-06T00:32:01.717Z,0.18
2023-02-06T00:34:30.709Z,0.18
2023-02-06T00:36:59.696Z,0.20
2023-02-06T00:39:28.796Z,0.23
2023-02-06T00:41:57.993Z,0.25
2023-02-06T00:44:27.208Z,0.26
2023-02-06T00:46:56.287Z,0.21
2023-02-06T00:49:25.486Z,0.17
2023-02-06T00:51:55.293Z,0.14
2023-02-06T00:54:24.118Z,0.12
2023-02-06T00:56:53.305Z,0.14
2023-02-06T00:59:22.089Z,0.10
2023-02-06T01:01:50.987Z,0.06
2023-02-06T01:04:20.051Z,0.04
2023-02-06T01:07:02.564Z,0.04
2023-02-06T01:09:33.118Z,0.02
2023-02-06T01:12:01.871Z,-0.03
2023-02-06T01:14:30.895Z,-0.09
2023-02-06T01:16:59.659Z,-0.11
2023-02-06T01:19:28.250Z,-0.14
2023-02-06T01:21:57.139Z,-0.23
2023-02-06T01:24:26.126Z,-0.29
2023-02-06T01:26:55.029Z,-0.28
2023-02-06T01:29:23.793Z,-0.24
2023-02-06T01:31:52.537Z,-0.23
2023-02-06T01:34:21.673Z,-0.20
2023-02-06T01:36:50.084Z,-0.17
2023-02-06T01:39:19.152Z,-0.15
2023-02-06T01:41:47.773Z,-0.13
2023-02-06T01:44:18.774Z,-0.11
2023-02-06T01:46:48.535Z,-0.08
2023-02-06T01:49:35.500Z,-0.07
2023-02-06T01:52:17.123Z,-0.11
2023-02-06T01:54:47.348Z,-0.12
2023-02-06T01:57:15.789Z,-0.14
2023-02-06T01:59:46.798Z,-0.17
2023-02-06T02:02:15.246Z,-0.15
2023-02-06T02:04:43.792Z,-0.15
2023-02-06T02:07:48.622Z,-0.12
2023-02-06T02:10:18.235Z,-0.06
2023-02-06T02:12:47.222Z,-0.07
2023-02-06T02:15:16.132Z,-0.12
2023-02-06T02:18:23.816Z,-0.14
2023-02-06T02:21:11.756Z,-0.15
2023-02-06T02:23:42.915Z,-0.14
2023-02-06T02:26:47.626Z,-0.17
2023-02-06T02:29:54.658Z,-0.21
2023-02-06T02:32:49.514Z,-0.25
2023-02-06T02:35:27.637Z,-0.27
2023-02-06T02:38:02.934Z,-0.28
2023-02-06T02:40:40.074Z,-0.35
2023-02-06T02:43:45.492Z,-0.40
2023-02-06T02:46:25.026Z,-0.45
2023-02-06T02:48:55.189Z,-0.48
2023-02-06T02:51:24.039Z,-0.50
2023-02-06T02:53:52.719Z,-0.49
2023-02-06T02:56:23.347Z,-0.50
2023-02-06T02:58:55.844Z,-0.51
2023-02-06T03:01:33.068Z,-0.53
2023-02-06T03:04:08.255Z,-0.54
2023-02-06T03:06:54.242Z,-0.53
2023-02-06T03:09:32.649Z,-0.49
2023-02-06T03:12:14.050Z,-0.46
2023-02-06T03:15:04.589Z,-0.47
2023-02-06T03:17:42.341Z,-0.46
2023-02-06T03:20:11.050Z,-0.40
2023-02-06T03:22:41.030Z,-0.34
2023-02-06T03:25:13.358Z,-0.38
2023-02-06T03:27:42.833Z,-0.41
2023-02-06T03:30:12.623Z,-0.42
2023-02-06T03:32:44.077Z,-0.42
2023-02-06T03:35:18.081Z,-0.39
2023-02-06T03:37:46.878Z,-0.41
2023-02-06T03:40:34.819Z,-0.39
2023-02-06T03:43:04.506Z,-0.36
2023-02-06T03:45:42.854Z,-0.33
2023-02-06T03:48:17.349Z,-0.29
2023-02-06T03:50:47.320Z,-0.27
2023-02-06T03:53:17.479Z,-0.25
2023-02-06T03:55:46.502Z,-0.22
2023-02-06T03:58:15.832Z,-0.25
2023-02-06T04:00:44.771Z,-0.28
2023-02-06T04:03:13.966Z,-0.31
2023-02-06T04:05:43.166Z,-0.31
2023-02-06T04:08:12.039Z,-0.34
2023-02-06T04:10:41.146Z,-0.34
2023-02-06T04:13:10.550Z,-0.35
2023-02-06T04:15:40.089Z,-0.36
2023-02-06T04:18:09.768Z,-0.34
2023-02-06T04:20:41.252Z,-0.35
2023-02-06T04:23:10.520Z,-0.39
2023-02-06T04:25:39.380Z,-0.46
2023-02-06T04:28:08.561Z,-0.51
2023-02-06T04:30:37.545Z,-0.52
2023-02-06T04:33:07.022Z,-0.56
2023-02-06T04:35:36.457Z,-0.60
2023-02-06T04:38:05.402Z,-0.59
2023-02-06T04:40:34.595Z,-0.59
2023-02-06T04:43:03.795Z,-0.59
2023-02-06T04:45:32.576Z,-0.64
2023-02-06T04:48:02.183Z,-0.69
2023-02-06T04:50:32.139Z,-0.75
2023-02-06T04:53:00.894Z,-0.76
2023-02-06T04:55:30.082Z,-0.79
2023-02-06T04:57:59.109Z,-0.83
2023-02-06T05:00:27.971Z,-0.82
2023-02-06T05:02:56.580Z,-0.80
2023-02-06T05:05:25.436Z,-0.79
2023-02-06T05:07:54.940Z,-0.81
2023-02-06T05:10:23.836Z,-0.82
2023-02-06T05:12:53.756Z,-0.83
2023-02-06T05:15:22.937Z,-0.86
2023-02-06T05:17:52.446Z,-0.85
2023-02-06T05:20:21.644Z,-0.87
2023-02-06T05:22:50.838Z,-0.93
2023-02-06T05:25:20.033Z,-0.97
2023-02-06T05:27:49.179Z,-1.09
2023-02-06T05:30:18.173Z,-1.22
2023-02-06T05:32:47.114Z,-1.31
2023-02-06T05:35:16.211Z,-1.34
2023-02-06T05:37:45.210Z,-1.34
2023-02-06T05:40:14.208Z,-1.37
2023-02-06T05:42:42.987Z,-1.41
2023-02-06T05:45:12.090Z,-1.45
2023-02-06T05:47:41.483Z,-1.52
2023-02-06T05:50:10.633Z,-1.58
2023-02-06T05:52:40.763Z,-1.60
2023-02-06T05:55:09.997Z,-1.63
2023-02-06T05:57:39.411Z,-1.67
2023-02-06T06:00:09.934Z,-1.69
2023-02-06T06:02:42.202Z,-1.77
2023-02-06T06:05:11.268Z,-1.82
2023-02-06T06:07:41.213Z,-1.82
2023-02-06T06:10:10.101Z,-1.81
2023-02-06T06:12:39.087Z,-1.85
2023-02-06T06:15:09.675Z,-1.91
2023-02-06T06:17:38.930Z,-1.98
2023-02-06T06:20:09.078Z,-2.11
2023-02-06T06:22:38.809Z,-2.18
2023-02-06T06:25:09.276Z,-2.20
2023-02-06T06:27:40.531Z,-2.23
2023-02-06T06:30:10.642Z,-2.20
2023-02-06T06:32:39.946Z,-2.14
2023-02-06T06:35:09.347Z,-2.12
2023-02-06T06:37:38.138Z,-2.12
2023-02-06T06:40:08.366Z,-2.09
2023-02-06T06:42:37.983Z,-2.03
2023-02-06T06:45:07.882Z,-1.97
2023-02-06T06:47:36.984Z,-1.87
2023-02-06T06:50:06.773Z,-1.78
2023-02-06T06:52:35.773Z,-1.77
2023-02-06T06:55:05.840Z,-1.78
2023-02-06T06:57:36.428Z,-1.81
2023-02-06T07:00:06.254Z,-1.77
2023-02-06T07:02:35.336Z,-1.71
2023-02-06T07:05:05.185Z,-1.68
2023-02-06T07:07:35.034Z,-1.62
2023-02-06T07:10:04.666Z,-1.54
2023-02-06T07:12:34.912Z,-1.45
2023-02-06T07:15:04.508Z,-1.39
2023-02-06T07:17:33.485Z,-1.36
2023-02-06T07:20:02.856Z,-1.32
2023-02-06T07:22:32.493Z,-1.28
2023-02-06T07:25:01.715Z,-1.21
2023-02-06T07:27:30.846Z,-1.12
2023-02-06T07:30:00.114Z,-1.01
2023-02-06T07:32:29.286Z,-0.96
2023-02-06T07:34:58.983Z,-0.91
2023-02-06T07:37:28.607Z,-0.85
2023-02-06T07:39:57.493Z,-0.80
2023-02-06T07:42:26.706Z,-0.75
2023-02-06T07:59:09.905Z,-0.15
2023-02-06T08:01:40.428Z,-0.13
2023-02-06T08:04:10.659Z,-0.07
2023-02-06T08:06:42.852Z,0.01
2023-02-06T08:09:13.375Z,0.03
2023-02-06T08:11:49.005Z,0.06
2023-02-06T08:14:17.896Z,0.11
2023-02-06T08:16:46.875Z,0.15
2023-02-06T08:19:15.922Z,0.20
2023-02-06T08:21:44.840Z,0.24
2023-02-06T08:24:14.165Z,0.34
2023-02-06T08:26:44.182Z,0.47
2023-02-06T08:29:14.793Z,0.63
2023-02-06T08:31:43.982Z,0.80
2023-02-06T08:34:14.406Z,0.89
2023-02-06T08:36:43.798Z,0.94
2023-02-06T08:39:14.151Z,0.97
2023-02-06T08:41:43.769Z,1.00
2023-02-06T08:44:16.352Z,1.09
2023-02-06T08:46:46.226Z,1.23
2023-02-06T08:49:18.632Z,1.33
2023-02-06T08:51:47.759Z,1.38
2023-02-06T08:54:19.167Z,1.42
2023-02-06T08:56:48.534Z,1.58
2023-02-06T08:59:18.351Z,1.74
2023-02-06T09:01:49.458Z,1.90
2023-02-06T09:04:19.857Z,2.05
2023-02-06T09:06:49.575Z,2.11
2023-02-06T09:09:19.194Z,2.11
2023-02-06T09:11:48.303Z,2.15
2023-02-06T09:14:18.178Z,2.14
2023-02-06T09:16:47.396Z,2.08
2023-02-06T09:19:16.471Z,2.05
2023-02-06T09:21:45.154Z,2.06
2023-02-06T09:24:14.151Z,2.13
2023-02-06T09:26:58.603Z,2.26
2023-02-06T09:29:29.744Z,2.51
2023-02-06T09:31:58.756Z,2.82
2023-02-06T09:34:27.529Z,3.13
2023-02-06T09:36:57.068Z,3.45
2023-02-06T09:39:26.028Z,3.80
2023-02-06T09:42:06.976Z,4.07
2023-02-06T09:44:39.265Z,4.26
2023-02-06T09:47:33.241Z,4.42
2023-02-06T09:50:17.871Z,4.48
2023-02-06T09:53:05.186Z,4.40
2023-02-06T09:55:43.743Z,4.23
2023-02-06T09:58:19.597Z,3.94
2023-02-06T10:00:54.627Z,3.68
2023-02-06T10:03:32.324Z,3.47
2023-02-06T10:06:04.203Z,3.39
2023-02-06T10:08:45.521Z,3.42
2023-02-06T10:11:35.700Z,3.43
2023-02-06T10:14:10.795Z,3.43
2023-02-06T10:16:44.600Z,3.40
2023-02-06T10:19:44.149Z,3.30
2023-02-06T10:22:21.280Z,3.29
2023-02-06T10:25:01.442Z,3.38
2023-02-06T10:27:30.332Z,3.41
2023-02-06T10:29:59.427Z,3.37
2023-02-06T10:32:57.202Z,3.35
2023-02-06T10:35:29.270Z,3.29
2023-02-06T10:38:21.094Z,3.25
2023-02-06T10:40:57.152Z,3.24
2023-02-06T10:43:58.483Z,3.39
2023-02-06T10:46:41.762Z,3.73
2023-02-06T10:49:17.646Z,3.91
2023-02-06T10:51:49.490Z,4.02
2023-02-06T10:54:32.262Z,4.08
2023-02-06T10:57:01.107Z,4.30
2023-02-06T11:00:00.676Z,4.89
2023-02-06T11:02:45.320Z,5.75
2023-02-06T11:05:21.496Z,6.51
2023-02-06T11:07:55.489Z,6.94
2023-02-06T11:10:25.706Z,7.00
2023-02-06T11:13:12.955Z,6.99
2023-02-06T11:16:00.640Z,6.74
2023-02-06T11:18:40.812Z,6.50
2023-02-06T11:21:10.728Z,6.46
2023-02-06T11:23:40.132Z,6.53
2023-02-06T11:26:17.321Z,6.51
2023-02-06T11:28:52.862Z,6.46
2023-02-06T11:31:39.066Z,6.50
2023-02-06T11:34:08.030Z,6.39
2023-02-06T11:36:37.764Z,6.20
2023-02-06T11:39:32.663Z,6.03
2023-02-06T11:42:23.773Z,5.68
2023-02-06T11:44:54.202Z,5.33
2023-02-06T11:47:38.053Z,5.12
2023-02-06T11:50:13.786Z,4.93
2023-02-06T11:52:46.738Z,4.60
2023-02-06T11:55:27.671Z,4.28
2023-02-06T11:58:12.313Z,4.01
2023-02-06T12:00:42.656Z,3.74
2023-02-06T12:03:32.960Z,3.53
2023-02-06T12:06:15.900Z,3.33
2023-02-06T12:08:56.401Z,3.12
2023-02-06T12:11:47.514Z,2.97
2023-02-06T12:14:21.645Z,2.79
2023-02-06T12:16:55.462Z,2.59
2023-02-06T12:19:32.161Z,2.44
2023-02-06T12:22:27.684Z,2.32
2023-02-06T12:24:57.009Z,2.17
2023-02-06T12:27:39.153Z,2.06
2023-02-06T12:30:27.261Z,2.17
2023-02-06T12:33:23.289Z,2.54
2023-02-06T12:36:16.342Z,2.93
2023-02-06T12:39:00.796Z,3.13
2023-02-06T12:41:53.347Z,3.28
2023-02-06T12:44:34.518Z,3.43
2023-02-06T12:47:19.318Z,3.47
2023-02-06T12:50:16.136Z,3.32
2023-02-06T12:52:50.648Z,3.08
2023-02-06T12:55:24.377Z,2.91
2023-02-06T12:57:53.447Z,2.81
2023-02-06T13:00:28.584Z,2.77
2023-02-06T13:03:05.401Z,2.73
2023-02-06T13:05:43.345Z,2.68
2023-02-06T13:08:17.310Z,2.61
2023-02-06T13:10:48.318Z,2.58
2023-02-06T13:13:35.942Z,2.54
2023-02-06T13:16:05.958Z,2.49
2023-02-06T13:18:41.506Z,2.39
2023-02-06T13:21:28.965Z,2.29
2023-02-06T13:24:03.421Z,2.15
2023-02-06T13:26:56.662Z,2.02
2023-02-06T13:29:38.001Z,1.90
2023-02-06T13:32:14.792Z,1.72
2023-02-06T13:34:54.064Z,1.57
2023-02-06T13:37:43.903Z,1.51
2023-02-06T13:40:16.446Z,1.49
2023-02-06T13:43:09.278Z,1.48
2023-02-06T13:45:43.326Z,1.43
2023-02-06T13:48:19.179Z,1.34
2023-02-06T13:50:51.856Z,1.23
2023-02-06T13:53:42.688Z,1.11
2023-02-06T13:56:31.634Z,1.00
2023-02-06T13:59:07.296Z,0.93
2023-02-06T14:01:38.566Z,0.87
2023-02-06T14:04:11.009Z,0.83
2023-02-06T14:06:44.391Z,0.70
2023-02-06T14:09:51.175Z,0.58
2023-02-06T14:12:36.948Z,0.49
2023-02-06T14:15:21.108Z,0.38
2023-02-06T14:17:59.302Z,0.30
2023-02-06T14:20:46.837Z,0.29
2023-02-06T14:23:50.552Z,0.28
2023-02-06T14:26:45.333Z,0.18
2023-02-06T14:29:29.787Z,0.08
2023-02-06T14:32:42.882Z,0.02
2023-02-06T14:35:41.705Z,-0.03
2023-02-06T14:38:39.701Z,-0.08
2023-02-06T14:41:13.224Z,-0.12
2023-02-06T14:43:43.669Z,-0.15
2023-02-06T14:46:18.871Z,-0.22
2023-02-06T14:48:52.571Z,-0.32
2023-02-06T14:51:34.643Z,-0.37
2023-02-06T14:54:27.092Z,-0.38
2023-02-06T14:57:01.730Z,-0.38
2023-02-06T14:59:31.234Z,-0.38
2023-02-06T15:02:00.414Z,-0.42
2023-02-06T15:04:30.380Z,-0.44
2023-02-06T15:07:01.126Z,-0.53
2023-02-06T15:09:35.390Z,-0.58
2023-02-06T15:12:18.649Z,-0.64
2023-02-06T15:15:04.933Z,-0.73
2023-02-06T15:17:34.923Z,-0.77
2023-02-06T15:20:20.819Z,-0.74
2023-02-06T15:22:50.316Z,-0.69
2023-02-06T15:25:45.276Z,-0.72
2023-02-06T15:28:19.972Z,-0.75
2023-02-06T15:30:59.645Z,-0.76
2023-02-06T15:33:33.425Z,-0.80
2023-02-06T15:36:03.745Z,-0.84
2023-02-06T15:38:33.427Z,-0.84
2023-02-06T15:41:06.889Z,-0.86
2023-02-06T15:43:36.025Z,-0.87
2023-02-06T15:46:06.143Z,-0.88
2023-02-06T15:48:41.525Z,-0.89
2023-02-06T15:51:31.884Z,-0.91
2023-02-06T15:54:19.799Z,-0.92
2023-02-06T15:57:03.752Z,-0.93
2023-02-06T15:59:37.148Z,-0.94
2023-02-06T16:02:06.167Z,-0.95
2023-02-06T16:04:40.017Z,-1.00
2023-02-06T16:07:20.307Z,-1.04
2023-02-06T16:09:56.966Z,-1.09
2023-02-06T16:12:26.749Z,-1.10
2023-02-06T16:15:05.162Z,-1.09
2023-02-06T16:17:36.836Z,-1.11
2023-02-06T16:20:08.126Z,-1.15
2023-02-06T16:22:38.746Z,-1.16
2023-02-06T16:25:32.440Z,-1.19
2023-02-06T16:28:02.457Z,-1.17
2023-02-06T16:30:33.674Z,-1.14
2023-02-06T16:33:19.349Z,-1.13
2023-02-06T16:35:49.468Z,-1.10
2023-02-06T16:38:18.560Z,-1.04
2023-02-06T16:40:50.649Z,-1.00
2023-02-06T16:43:20.546Z,-0.97
2023-02-06T16:45:50.487Z,-0.96
2023-02-06T16:48:19.387Z,-0.95
2023-02-06T16:50:48.644Z,-0.94
2023-02-06T16:53:23.392Z,-0.95
2023-02-06T16:55:52.466Z,-0.95
2023-02-06T16:58:23.407Z,-0.96
2023-02-06T17:00:53.116Z,-1.01
2023-02-06T17:03:22.308Z,-1.08
2023-02-06T17:05:53.092Z,-1.09
2023-02-06T17:08:24.751Z,-1.09
2023-02-06T17:10:53.910Z,-1.08
2023-02-06T17:13:24.476Z,-1.07
2023-02-06T17:15:54.310Z,-1.05
2023-02-06T17:18:24.088Z,-1.04
2023-02-06T17:20:54.080Z,-1.02
2023-02-06T17:23:23.379Z,-0.97
2023-02-06T17:25:52.568Z,-0.95
2023-02-06T17:28:21.601Z,-0.96
2023-02-06T17:30:51.543Z,-0.99
2023-02-06T17:33:21.282Z,-1.01
2023-02-06T17:35:51.502Z,-1.02
2023-02-06T17:38:20.700Z,-1.02
2023-02-06T17:40:50.110Z,-1.02
2023-02-06T17:43:19.815Z,-1.06
2023-02-06T17:45:49.558Z,-1.12
2023-02-06T17:48:19.755Z,-1.17
2023-02-06T17:50:49.563Z,-1.20
2023-02-06T17:53:18.687Z,-1.20
2023-02-06T17:55:48.470Z,-1.21
2023-02-06T17:58:20.520Z,-1.21
2023-02-06T18:00:50.930Z,-1.23
2023-02-06T18:03:20.874Z,-1.24
2023-02-06T18:06:00.383Z,-1.23
2023-02-06T18:08:29.717Z,-1.21
2023-02-06T18:10:59.326Z,-1.23
2023-02-06T18:13:29.286Z,-1.24
2023-02-06T18:15:58.642Z,-1.24
2023-02-06T18:18:27.846Z,-1.23
2023-02-06T18:20:57.791Z,-1.22
2023-02-06T18:23:27.452Z,-1.22
2023-02-06T18:26:05.669Z,-1.24
2023-02-06T18:28:38.871Z,-1.19
2023-02-06T18:31:24.477Z,-1.16
2023-02-06T18:33:54.457Z,-1.16
2023-02-06T18:36:23.630Z,-1.17
2023-02-06T18:38:53.583Z,-1.16
2023-02-06T18:41:42.020Z,-1.11
2023-02-06T18:44:11.826Z,-1.08
2023-02-06T18:46:42.135Z,-1.08
2023-02-06T18:49:11.749Z,-1.11
2023-02-06T18:51:41.195Z,-1.17
2023-02-06T18:54:10.785Z,-1.22
2023-02-06T18:56:40.369Z,-1.21
2023-02-06T18:59:09.259Z,-1.25
2023-02-06T19:01:38.661Z,-1.29
2023-02-06T19:04:08.201Z,-1.30
2023-02-06T19:06:40.537Z,-1.29
2023-02-06T19:09:10.043Z,-1.25
2023-02-06T19:11:40.261Z,-1.22
2023-02-06T19:14:12.054Z,-1.19
2023-02-06T19:16:45.022Z,-1.16
2023-02-06T19:19:15.338Z,-1.19
2023-02-06T19:21:44.528Z,-1.23
2023-02-06T19:24:15.162Z,-1.26
2023-02-06T19:26:44.766Z,-1.24
2023-02-06T19:29:16.742Z,-1.19
2023-02-06T19:31:46.967Z,-1.18
2023-02-06T19:34:16.764Z,-1.16
2023-02-06T19:36:46.060Z,-1.16
2023-02-06T19:39:15.675Z,-1.15
2023-02-06T19:41:45.997Z,-1.14
2023-02-06T19:44:15.202Z,-1.13
2023-02-06T19:46:44.696Z,-1.16
2023-02-06T19:49:13.999Z,-1.18
2023-02-06T19:51:45.909Z,-1.19
2023-02-06T19:54:15.679Z,-1.25
2023-02-06T19:56:47.178Z,-1.28
2023-02-06T19:59:21.898Z,-1.28
2023-02-06T20:01:59.126Z,-1.27
2023-02-06T20:04:35.679Z,-1.29
2023-02-06T20:07:06.022Z,-1.25
2023-02-06T20:09:37.163Z,-1.20
2023-02-06T20:12:10.078Z,-1.18
2023-02-06T20:14:41.094Z,-1.15
2023-02-06T20:17:10.548Z,-1.16
2023-02-06T20:19:40.002Z,-1.13
2023-02-06T20:22:09.527Z,-1.09
2023-02-06T20:24:38.909Z,-1.07
2023-02-06T20:27:08.931Z,-1.08
2023-02-06T20:29:39.248Z,-1.08
2023-02-06T20:32:08.850Z,-1.12
2023-02-06T20:34:39.178Z,-1.12
2023-02-06T20:37:10.913Z,-1.07
2023-02-06T20:39:41.379Z,-1.02
2023-02-06T20:42:10.991Z,-1.01
2023-02-06T20:44:40.889Z,-1.01
2023-02-06T20:47:10.605Z,-1.02
2023-02-06T20:49:39.726Z,-1.01
2023-02-06T20:52:12.517Z,-0.99
2023-02-06T20:54:43.384Z,-0.97
2023-02-06T20:57:12.989Z,-0.97
2023-02-06T20:59:42.928Z,-0.99
2023-02-06T21:02:12.426Z,-1.00
2023-02-06T21:04:41.935Z,-1.03
2023-02-06T21:07:11.128Z,-1.05
2023-02-06T21:09:42.068Z,-1.05
2023-02-06T21:12:11.686Z,-1.05
2023-02-06T21:14:42.747Z,-1.02
2023-02-06T21:17:12.422Z,-1.00
2023-02-06T21:19:41.832Z,-0.97
2023-02-06T21:22:11.962Z,-0.92
2023-02-06T21:24:41.041Z,-0.89
2023-02-06T21:27:10.552Z,-0.88
2023-02-06T21:29:40.050Z,-0.91
2023-02-06T21:32:14.016Z,-0.92
2023-02-06T21:34:43.570Z,-0.94
2023-02-06T21:37:13.206Z,-0.91
2023-02-06T21:39:41.962Z,-0.89
2023-02-06T21:42:11.712Z,-0.88
2023-02-06T21:44:43.872Z,-0.92
2023-02-06T21:47:13.556Z,-0.94
2023-02-06T21:49:42.644Z,-0.94
2023-02-06T21:52:11.351Z,-0.92
2023-02-06T21:54:43.720Z,-0.93
2023-02-06T21:57:12.722Z,-0.97
2023-02-06T21:59:44.143Z,-0.99
2023-02-06T22:02:13.651Z,-0.98
2023-02-06T22:04:47.151Z,-0.98
2023-02-06T22:07:16.249Z,-0.96
2023-02-06T22:09:45.342Z,-1.00
2023-02-06T22:12:14.538Z,-1.02
2023-02-06T22:14:43.644Z,-0.99
2023-02-06T22:17:12.624Z,-0.98
2023-02-06T22:19:41.842Z,-0.98
2023-02-06T22:22:12.779Z,-0.99
2023-02-06T22:24:41.854Z,-0.97
2023-02-06T22:27:11.976Z,-0.99
2023-02-06T22:29:40.761Z,-0.99
2023-02-06T22:32:09.875Z,-1.00
2023-02-06T22:34:38.742Z,-1.06
2023-02-06T22:37:07.840Z,-1.10
2023-02-06T22:39:38.062Z,-1.12
2023-02-06T22:42:07.460Z,-1.14
2023-02-06T22:44:36.557Z,-1.19
2023-02-06T22:47:06.161Z,-1.19
2023-02-06T22:49:35.051Z,-1.19
2023-02-06T22:52:04.144Z,-1.20
2023-02-06T22:54:33.345Z,-1.21
2023-02-06T22:57:02.444Z,-1.19
2023-02-06T22:59:31.845Z,-1.18
2023-02-06T23:02:02.710Z,-1.14
2023-02-06T23:04:35.161Z,-1.09
2023-02-06T23:07:04.677Z,-1.07
2023-02-06T23:09:35.495Z,-1.05
2023-02-06T23:12:11.660Z,-1.01
2023-02-06T23:14:40.550Z,-1.01
2023-02-06T23:17:10.667Z,-0.97
2023-02-06T23:19:40.318Z,-0.95
2023-02-06T23:22:11.005Z,-0.95
2023-02-06T23:24:40.635Z,-0.91
2023-02-06T23:27:10.330Z,-0.90
2023-02-06T23:29:39.522Z,-0.93
2023-02-06T23:32:08.409Z,-0.94
2023-02-06T23:34:39.096Z,-0.91
2023-02-06T23:37:08.850Z,-0.89
2023-02-06T23:39:37.847Z,-0.85
2023-02-06T23:42:06.525Z,-0.82
2023-02-06T23:44:35.332Z,-0.84
2023-02-06T23:47:04.553Z,-0.87
2023-02-06T23:49:33.449Z,-0.92
2023-02-06T23:52:02.037Z,-0.94
2023-02-06T23:54:31.493Z,-0.96
2023-02-06T23:57:00.685Z,-0.93
2023-02-06T23:59:30.196Z,-0.93
